Time;durP1;ratioP1;P1;durP2;ratioP2;P2;SDS_P1;SDS_P2;PMS_P1;PMS_P2;Temp;Humidity;BMP_temperature;BMP_pressure;BME280_temperature;BME280_humidity;BME280_pressure;Samples;Min_cycle;Max_cycle;Signal;HPM_P1;HPM_P2
2023/11/15 00:01:10;;;;;;;6.80;3.97;;;;;;;10.66;100.00;96891.44;5010541;28;20551;-76
2023/11/15 00:03:35;;;;;;;9.43;6.18;;;;;;;10.70;100.00;96876.03;5009808;28;20038;-76
2023/11/15 00:06:01;;;;;;;6.03;3.90;;;;;;;10.67;100.00;96890.47;5009902;28;20087;-77
2023/11/15 00:08:27;;;;;;;6.95;3.70;;;;;;;10.69;100.00;96885.00;5009811;28;20068;-77
2023/11/15 00:10:52;;;;;;;5.95;3.38;;;;;;;10.68;100.00;96867.22;5009713;28;20382;-77
2023/11/15 00:13:18;;;;;;;6.55;3.05;;;;;;;10.64;100.00;96855.06;5010142;28;20026;-76
2023/11/15 00:15:44;;;;;;;2.55;1.95;;;;;;;10.55;100.00;96887.84;5009714;28;20105;-76
2023/11/15 00:18:09;;;;;;;5.68;3.00;;;;;;;10.29;100.00;96895.03;5009798;28;20113;-75
2023/11/15 00:20:35;;;;;;;6.22;2.35;;;;;;;10.30;100.00;96873.53;5009626;28;20026;-76
2023/11/15 00:23:01;;;;;;;8.30;2.40;;;;;;;10.24;100.00;96873.97;5011077;28;20177;-75
2023/11/15 00:25:28;;;;;;;7.22;2.33;;;;;;;10.24;100.00;96882.00;4993039;28;20126;-75
2023/11/15 00:27:55;;;;;;;4.35;2.13;;;;;;;10.14;100.00;96883.63;5009618;28;20018;-76
2023/11/15 00:30:21;;;;;;;4.32;2.08;;;;;;;10.20;100.00;96863.63;4993755;28;20060;-77
2023/11/15 00:32:46;;;;;;;9.02;2.65;;;;;;;10.13;100.00;96870.34;5009259;28;20048;-76
2023/11/15 00:35:12;;;;;;;11.85;2.50;;;;;;;10.09;100.00;96867.03;5010941;28;20025;-76
2023/11/15 00:37:38;;;;;;;6.00;2.63;;;;;;;10.10;100.00;96873.22;5010735;28;20072;-77
2023/11/15 00:40:05;;;;;;;6.38;3.15;;;;;;;10.02;100.00;96878.25;5010873;28;20465;-78
2023/11/15 00:42:31;;;;;;;6.93;2.97;;;;;;;10.01;100.00;96890.75;5009578;28;20056;-77
2023/11/15 00:44:56;;;;;;;12.88;3.50;;;;;;;9.96;100.00;96884.91;5010541;28;20493;-76
2023/11/15 00:47:22;;;;;;;7.00;2.58;;;;;;;9.98;100.00;96866.06;5009625;28;20017;-76
2023/11/15 00:49:48;;;;;;;6.55;2.95;;;;;;;9.92;100.00;96875.38;5009580;28;20025;-77
2023/11/15 00:52:13;;;;;;;6.07;3.40;;;;;;;9.89;100.00;96867.59;5009697;28;20112;-76
2023/11/15 00:54:40;;;;;;;11.02;2.70;;;;;;;9.96;100.00;96854.66;4992935;28;20576;-76
2023/11/15 00:57:06;;;;;;;8.60;2.83;;;;;;;9.92;100.00;96871.84;4993305;28;20038;-76
2023/11/15 00:59:36;;;;;;;5.68;3.05;;;;;;;9.90;100.00;96887.13;5009474;28;20481;-75
2023/11/15 01:04:50;;;;;;;7.88;2.88;;;;;;;9.89;100.00;96883.59;5010769;28;20072;-76
2023/11/15 01:07:15;;;;;;;3.85;2.30;;;;;;;10.02;100.00;96894.28;5013235;28;20461;-76
2023/11/15 01:09:41;;;;;;;4.03;2.50;;;;;;;10.00;100.00;96891.72;5013213;28;20049;-75
2023/11/15 01:12:07;;;;;;;6.90;2.90;;;;;;;10.01;100.00;96887.22;5013385;28;20391;-75
2023/11/15 01:14:34;;;;;;;4.68;2.28;;;;;;;10.04;100.00;96900.38;4996342;28;20113;-76
2023/11/15 01:16:59;;;;;;;5.55;2.13;;;;;;;10.06;100.00;96893.13;5013159;28;20099;-77
2023/11/15 01:19:25;;;;;;;4.20;2.05;;;;;;;10.01;100.00;96888.09;5014061;28;20038;-77
2023/11/15 01:21:50;;;;;;;4.25;2.00;;;;;;;10.15;100.00;96889.84;5012802;28;20033;-76
2023/11/15 01:24:16;;;;;;;3.95;2.20;;;;;;;10.14;100.00;96878.28;5012816;28;20030;-78
2023/11/15 01:26:42;;;;;;;6.15;2.00;;;;;;;10.08;100.00;96894.72;4996356;28;20429;-75
2023/11/15 01:29:08;;;;;;;3.30;2.00;;;;;;;10.12;100.00;96865.97;5012896;28;20065;-76
2023/11/15 01:31:33;;;;;;;4.70;2.50;;;;;;;10.12;100.00;96855.28;4995980;28;20034;-76
2023/11/15 01:33:59;;;;;;;6.75;2.08;;;;;;;10.45;100.00;96870.75;4996118;28;20482;-77
2023/11/15 01:36:24;;;;;;;7.50;2.33;;;;;;;10.51;100.00;96860.47;5013705;28;20113;-77
2023/11/15 01:38:50;;;;;;;4.28;2.17;;;;;;;10.60;100.00;96891.03;5012621;28;20033;-76
2023/11/15 01:41:17;;;;;;;3.42;2.10;;;;;;;10.59;100.00;96881.28;5012427;28;20025;-76
2023/11/15 01:43:44;;;;;;;4.63;2.42;;;;;;;10.60;100.00;96872.31;4993538;28;20033;-77
2023/11/15 01:46:09;;;;;;;4.30;2.10;;;;;;;10.55;100.00;96869.94;4996279;28;20505;-75
2023/11/15 01:48:35;;;;;;;4.82;2.53;;;;;;;10.50;100.00;96860.56;5012376;28;20025;-76
2023/11/15 01:51:01;;;;;;;9.02;2.10;;;;;;;10.40;100.00;96870.22;4996326;28;20478;-76
2023/11/15 01:53:27;;;;;;;3.67;1.77;;;;;;;10.37;100.00;96873.13;4995837;28;20029;-77
2023/11/15 01:55:53;;;;;;;3.17;1.55;;;;;;;10.27;100.00;96864.91;5012493;28;20026;-76
2023/11/15 01:58:19;;;;;;;4.70;2.22;;;;;;;10.22;100.00;96854.53;5012403;28;20095;-76
2023/11/15 02:00:45;;;;;;;2.63;1.90;;;;;;;10.39;100.00;96855.16;4995608;28;20026;-76
2023/11/15 02:03:11;;;;;;;3.30;1.77;;;;;;;10.33;100.00;96843.09;5012161;28;20030;-77
2023/11/15 02:05:37;;;;;;;4.85;2.30;;;;;;;10.42;100.00;96836.22;5011910;28;20037;-75
2023/11/15 02:08:04;;;;;;;4.63;2.05;;;;;;;10.39;100.00;96831.09;5013137;28;20025;-77
2023/11/15 02:10:30;;;;;;;6.65;2.75;;;;;;;10.45;100.00;96844.88;5013019;28;20112;-76
2023/11/15 02:12:56;;;;;;;2.72;1.80;;;;;;;10.54;100.00;96824.63;5011741;28;20124;-77
2023/11/15 02:15:21;;;;;;;4.55;2.50;;;;;;;10.42;100.00;96814.81;4995654;28;20032;-77
2023/11/15 02:17:48;;;;;;;2.88;2.00;;;;;;;10.46;100.00;96806.44;5011403;28;20033;-76
2023/11/15 02:20:17;;;;;;;4.22;1.88;;;;;;;10.59;100.00;96791.22;5011868;28;20022;-78
2023/11/15 02:22:48;;;;;;;3.03;1.80;;;;;;;10.77;100.00;96797.88;4995285;28;20033;-76
2023/11/15 02:25:14;;;;;;;6.47;1.77;;;;;;;10.72;100.00;96804.53;4992090;28;20405;-78
2023/11/15 02:27:40;;;;;;;2.28;1.67;;;;;;;10.74;100.00;96798.09;4977313;28;20125;-76
2023/11/15 02:30:07;;;;;;;5.97;1.73;;;;;;;10.79;100.00;96781.72;4978961;28;20544;-77
2023/11/15 02:32:33;;;;;;;2.65;1.90;;;;;;;10.83;100.00;96785.84;4995691;28;20064;-76
2023/11/15 02:34:58;;;;;;;4.50;1.80;;;;;;;10.74;100.00;96797.25;4995279;28;20054;-75
2023/11/15 02:37:24;;;;;;;3.38;1.60;;;;;;;10.82;100.00;96792.19;5012845;28;20049;-75
2023/11/15 02:39:51;;;;;;;3.10;1.73;;;;;;;10.79;100.00;96800.44;4995046;28;20034;-78
2023/11/15 02:42:16;;;;;;;4.32;1.60;;;;;;;10.76;100.00;96806.03;4975644;28;20030;-76
2023/11/15 02:44:42;;;;;;;4.22;1.58;;;;;;;10.82;100.00;96810.91;4993131;28;20421;-76
2023/11/15 02:47:07;;;;;;;4.53;1.98;;;;;;;10.77;100.00;96807.72;4995018;28;20520;-76
2023/11/15 02:49:37;;;;;;;6.03;1.92;;;;;;;10.80;100.00;96812.81;4994893;28;20595;-77
2023/11/15 02:52:03;;;;;;;3.95;2.10;;;;;;;10.79;100.00;96811.16;4995322;28;20036;-76
2023/11/15 02:54:29;;;;;;;4.25;1.80;;;;;;;10.75;100.00;96802.50;5012544;28;20081;-76
2023/11/15 02:56:54;;;;;;;2.50;1.65;;;;;;;10.73;100.00;96804.44;4994814;28;20045;-76
2023/11/15 02:59:20;;;;;;;3.97;1.95;;;;;;;10.67;100.00;96812.91;5012381;28;20026;-76
2023/11/15 03:01:47;;;;;;;3.45;1.70;;;;;;;10.70;100.00;96811.84;4976753;28;20112;-76
2023/11/15 03:04:12;;;;;;;4.13;2.50;;;;;;;10.74;100.00;96807.94;5012368;28;20413;-77
2023/11/15 03:06:38;;;;;;;7.22;1.70;;;;;;;10.72;100.00;96820.59;4994721;28;20036;-75
2023/11/15 03:09:03;;;;;;;5.80;2.95;;;;;;;10.67;100.00;96806.72;4978339;28;20026;-78
2023/11/15 03:11:29;;;;;;;4.00;2.25;;;;;;;10.79;100.00;96801.31;4994538;28;20038;-75
2023/11/15 03:13:55;;;;;;;5.63;3.28;;;;;;;10.79;100.00;96784.41;4978419;28;20125;-76
2023/11/15 03:16:20;;;;;;;3.10;2.20;;;;;;;10.83;100.00;96777.81;4978388;28;20092;-75
2023/11/15 03:18:46;;;;;;;7.25;2.58;;;;;;;11.00;100.00;96787.25;4994442;28;20029;-76
2023/11/15 03:21:12;;;;;;;4.80;2.78;;;;;;;10.97;100.00;96783.00;4978176;28;20033;-77
2023/11/15 03:23:38;;;;;;;6.78;2.80;;;;;;;11.09;100.00;96779.41;4994280;28;20547;-75
2023/11/15 03:26:04;;;;;;;7.75;3.83;;;;;;;11.19;100.00;96782.22;4983293;28;20444;-77
2023/11/15 03:28:31;;;;;;;128.23;66.35;;;;;;;11.23;100.00;96779.19;4993500;28;20057;-76
2023/11/15 03:30:57;;;;;;;48.80;26.27;;;;;;;11.16;100.00;96767.25;5010691;28;20100;-76
2023/11/15 03:33:23;;;;;;;21.48;9.80;;;;;;;11.15;100.00;96765.53;5011714;28;20509;-76
2023/11/15 03:35:49;;;;;;;6.53;3.50;;;;;;;11.21;100.00;96759.72;5010418;28;20021;-76
2023/11/15 03:38:15;;;;;;;13.65;7.15;;;;;;;11.22;100.00;96768.59;5011758;28;20030;-76
2023/11/15 03:40:41;;;;;;;5.38;3.35;;;;;;;11.28;100.00;96771.66;5011480;28;20432;-77
2023/11/15 03:43:07;;;;;;;4.68;2.85;;;;;;;11.31;100.00;96776.78;5010357;28;20029;-77
2023/11/15 03:45:33;;;;;;;68.28;24.98;;;;;;;11.41;100.00;96767.03;5010122;28;20096;-77
2023/11/15 03:48:02;;;;;;;25.73;10.25;;;;;;;11.48;100.00;96777.28;5010103;28;20104;-77
2023/11/15 03:50:28;;;;;;;11.43;5.18;;;;;;;11.41;100.00;96759.00;5010600;28;20533;-77
2023/11/15 03:52:54;;;;;;;13.35;5.82;;;;;;;11.46;100.00;96757.81;5011612;28;20112;-76
2023/11/15 03:55:20;;;;;;;13.30;4.97;;;;;;;11.50;100.00;96744.06;5011426;28;20053;-76
2023/11/15 03:57:48;;;;;;;13.23;6.60;;;;;;;11.46;100.00;96761.34;5010260;28;20060;-77
2023/11/15 04:00:16;;;;;;;21.38;6.22;;;;;;;11.38;100.00;96771.81;5010277;28;20072;-76
2023/11/15 04:02:42;;;;;;;17.38;5.07;;;;;;;11.31;100.00;96765.22;5010273;28;20029;-76
2023/11/15 04:05:09;;;;;;;3.55;2.10;;;;;;;11.22;100.00;96761.44;5010732;28;20022;-77
2023/11/15 04:07:36;;;;;;;9.82;5.13;;;;;;;11.43;100.00;96750.88;5010462;28;20022;-77
2023/11/15 04:10:02;;;;;;;21.70;9.27;;;;;;;11.48;100.00;96739.78;5011365;28;20025;-77
2023/11/15 04:12:27;;;;;;;8.98;4.47;;;;;;;11.44;100.00;96734.66;5009755;28;20056;-77
2023/11/15 04:14:53;;;;;;;11.65;3.03;;;;;;;11.47;100.00;96744.31;5011302;28;20030;-76
2023/11/15 04:17:18;;;;;;;10.52;4.10;;;;;;;11.51;100.00;96731.50;5009664;28;20033;-77
2023/11/15 04:19:44;;;;;;;12.02;4.28;;;;;;;11.52;100.00;96731.41;4993473;28;20545;-76
2023/11/15 04:22:09;;;;;;;16.98;4.47;;;;;;;11.50;100.00;96729.81;5010983;28;20045;-75
2023/11/15 04:24:38;;;;;;;14.65;4.47;;;;;;;11.47;100.00;96727.41;4992955;28;20049;-75
2023/11/15 04:27:05;;;;;;;10.63;3.65;;;;;;;11.41;100.00;96726.88;5009535;28;20055;-75
2023/11/15 04:29:31;;;;;;;15.23;6.00;;;;;;;11.41;100.00;96723.38;5009630;28;20033;-77
2023/11/15 04:31:57;;;;;;;13.38;5.03;;;;;;;11.39;100.00;96712.78;5009752;28;20378;-76
2023/11/15 04:34:22;;;;;;;8.75;3.63;;;;;;;11.31;100.00;96701.81;5009624;28;20056;-75
2023/11/15 04:36:48;;;;;;;16.30;5.47;;;;;;;11.44;100.00;96697.19;5010803;28;20037;-75
2023/11/15 04:39:13;;;;;;;15.30;5.45;;;;;;;11.53;100.00;96700.97;4994114;28;20168;-76
2023/11/15 04:41:39;;;;;;;12.15;4.85;;;;;;;11.62;100.00;96699.41;5013479;28;20014;-77
2023/11/15 04:44:05;;;;;;;7.18;2.72;;;;;;;11.67;100.00;96691.84;5013584;28;20523;-75
2023/11/15 04:46:34;;;;;;;14.75;3.90;;;;;;;11.79;100.00;96704.28;5013056;28;20103;-76
2023/11/15 04:49:00;;;;;;;4.63;2.10;;;;;;;11.81;100.00;96703.16;5013598;28;20033;-77
2023/11/15 04:51:26;;;;;;;3.67;1.88;;;;;;;11.87;100.00;96693.81;5014544;28;20026;-77
2023/11/15 04:53:51;;;;;;;7.97;3.42;;;;;;;11.92;100.00;96687.09;5013318;28;20030;-76
2023/11/15 04:56:17;;;;;;;4.15;2.65;;;;;;;11.97;100.00;96672.50;5013552;28;20096;-76
2023/11/15 04:58:43;;;;;;;8.15;4.10;;;;;;;12.18;100.00;96671.53;5014322;28;20024;-78
2023/11/15 05:01:09;;;;;;;7.38;3.55;;;;;;;12.25;100.00;96659.34;5013243;28;20022;-77
2023/11/15 05:03:34;;;;;;;6.45;2.05;;;;;;;12.32;100.00;96652.50;5012902;28;20026;-77
2023/11/15 05:06:00;;;;;;;4.68;2.30;;;;;;;12.37;100.00;96661.00;4996543;28;20088;-75
2023/11/15 05:08:26;;;;;;;6.30;2.50;;;;;;;12.43;100.00;96655.13;5013142;28;20037;-76
2023/11/15 05:10:52;;;;;;;9.18;3.30;;;;;;;12.55;100.00;96653.25;5012830;28;20452;-76
2023/11/15 05:13:18;;;;;;;5.93;2.15;;;;;;;12.68;100.00;96647.69;5013421;28;20033;-77
2023/11/15 05:15:44;;;;;;;3.40;2.13;;;;;;;12.72;100.00;96635.72;5009214;28;20496;-76
2023/11/15 05:18:09;;;;;;;9.43;3.75;;;;;;;12.77;100.00;96629.00;5009986;28;20069;-76
2023/11/15 05:20:35;;;;;;;18.45;6.47;;;;;;;12.65;100.00;96626.50;5011079;28;20045;-76
2023/11/15 05:23:01;;;;;;;16.33;6.03;;;;;;;12.53;100.00;96620.34;4993985;28;20028;-77
2023/11/15 05:25:28;;;;;;;15.15;5.82;;;;;;;12.57;100.00;96619.13;5011289;28;20042;-76
2023/11/15 05:27:54;;;;;;;12.73;6.10;;;;;;;12.65;100.00;96615.75;5012794;28;20029;-78
2023/11/15 05:30:20;;;;;;;9.77;5.82;;;;;;;12.69;100.00;96623.44;4996265;28;20030;-76
2023/11/15 05:32:45;;;;;;;13.60;7.00;;;;;;;12.74;100.00;96615.84;5012506;28;20022;-73
2023/11/15 05:35:11;;;;;;;22.65;9.15;;;;;;;12.79;100.00;96610.09;5012287;28;20025;-74
2023/11/15 05:37:38;;;;;;;14.85;6.07;;;;;;;12.78;100.00;96611.91;5012136;28;20026;-74
2023/11/15 05:40:07;;;;;;;23.83;11.65;;;;;;;12.70;100.00;96625.16;5013320;28;20034;-75
2023/11/15 05:42:33;;;;;;;13.15;5.80;;;;;;;12.62;100.00;96624.06;5013379;28;20567;-76
2023/11/15 05:44:59;;;;;;;21.75;5.57;;;;;;;12.58;100.00;96620.78;4995628;28;20033;-75
2023/11/15 05:47:26;;;;;;;12.75;4.53;;;;;;;12.53;100.00;96620.34;4996028;28;20026;-75
2023/11/15 05:49:53;;;;;;;13.32;5.60;;;;;;;12.56;100.00;96616.53;5011779;28;20032;-74
2023/11/15 05:52:19;;;;;;;14.25;4.47;;;;;;;12.70;100.00;96619.78;5011463;28;20102;-75
2023/11/15 05:54:46;;;;;;;25.77;8.73;;;;;;;12.75;100.00;96638.16;5012186;28;20037;-75
2023/11/15 05:57:13;;;;;;;12.32;5.32;;;;;;;12.92;100.00;96625.00;5011987;28;20037;-75
2023/11/15 05:59:39;;;;;;;29.10;10.48;;;;;;;13.01;100.00;96623.38;4995703;28;20561;-75
2023/11/15 06:02:05;;;;;;;19.17;6.00;;;;;;;13.07;100.00;96625.53;5013124;28;20053;-75
2023/11/15 06:04:32;;;;;;;13.48;6.82;;;;;;;13.27;100.00;96624.66;5011767;28;20033;-76
2023/11/15 06:06:59;;;;;;;19.13;7.45;;;;;;;13.43;100.00;96629.53;4995221;28;20467;-75
2023/11/15 06:09:26;;;;;;;34.63;10.65;;;;;;;13.63;100.00;96617.88;5011557;28;20375;-75
2023/11/15 06:11:51;;;;;;;49.05;19.15;;;;;;;13.67;100.00;96629.19;5011438;28;20025;-75
2023/11/15 06:14:17;;;;;;;109.18;39.97;;;;;;;13.70;100.00;96623.53;5011734;28;20460;-74
2023/11/15 06:16:43;;;;;;;31.00;9.75;;;;;;;13.63;100.00;96625.94;5011595;28;20025;-75
2023/11/15 06:19:09;;;;;;;13.35;5.20;;;;;;;13.60;100.00;96614.63;4994745;28;20056;-75
2023/11/15 06:21:35;;;;;;;29.10;8.13;;;;;;;13.60;100.00;96628.88;5012838;28;20030;-74
2023/11/15 06:24:01;;;;;;;24.15;6.20;;;;;;;13.72;100.00;96618.91;4994966;28;20036;-76
2023/11/15 06:26:29;;;;;;;9.90;4.90;;;;;;;13.88;100.00;96624.59;5011462;28;20054;-75
2023/11/15 06:28:55;;;;;;;21.10;7.88;;;;;;;13.95;100.00;96618.53;5011047;28;20104;-75
2023/11/15 06:31:21;;;;;;;25.23;8.65;;;;;;;14.00;100.00;96626.16;5011230;28;20037;-76
2023/11/15 06:33:46;;;;;;;14.82;7.45;;;;;;;14.16;100.00;96620.25;4995017;28;20034;-75
2023/11/15 06:36:12;;;;;;;15.73;8.88;;;;;;;14.31;100.00;96619.69;5011244;28;20041;-75
2023/11/15 06:38:38;;;;;;;26.30;15.10;;;;;;;14.54;100.00;96634.63;5011139;28;20113;-75
2023/11/15 06:41:07;;;;;;;21.60;11.48;;;;;;;14.67;100.00;96612.81;5012292;28;20045;-76
2023/11/15 06:43:33;;;;;;;24.20;11.38;;;;;;;14.91;100.00;96597.03;5011488;28;20018;-76
2023/11/15 06:45:58;;;;;;;22.92;11.30;;;;;;;15.21;100.00;96622.91;5010897;28;20124;-75
2023/11/15 06:48:24;;;;;;;23.00;11.00;;;;;;;15.56;100.00;96609.63;5010857;28;20501;-76
2023/11/15 06:50:50;;;;;;;20.42;10.02;;;;;;;16.62;100.00;96584.66;5010718;28;20112;-75
2023/11/15 06:53:16;;;;;;;25.33;11.85;;;;;;;17.08;100.00;96588.88;5011118;28;20511;-75
2023/11/15 06:55:41;;;;;;;27.02;11.65;;;;;;;17.16;100.00;96594.38;5012342;28;20029;-75
2023/11/15 06:58:08;;;;;;;22.75;11.55;;;;;;;17.14;100.00;96580.16;5010659;28;20370;-74
2023/11/15 07:00:34;;;;;;;30.00;12.93;;;;;;;17.17;100.00;96596.03;5010579;28;20527;-76
2023/11/15 07:03:01;;;;;;;35.38;14.07;;;;;;;16.91;100.00;96600.59;5009398;28;20022;-75
2023/11/15 07:05:28;;;;;;;31.50;15.63;;;;;;;16.58;100.00;96600.31;5010623;28;20114;-75
2023/11/15 07:07:53;;;;;;;33.13;14.23;;;;;;;16.70;100.00;96617.97;4995154;28;20080;-74
2023/11/15 07:10:19;;;;;;;14.55;8.15;;;;;;;16.82;100.00;96621.31;5011995;28;20452;-76
2023/11/15 07:12:47;;;;;;;29.13;13.20;;;;;;;17.06;100.00;96635.00;5010306;28;20026;-75
2023/11/15 07:15:16;;;;;;;21.98;9.65;;;;;;;17.33;100.00;96624.03;5010119;28;20045;-75
2023/11/15 07:17:42;;;;;;;11.63;4.70;;;;;;;17.78;100.00;96634.63;5010649;28;20029;-75
2023/11/15 07:20:09;;;;;;;8.48;3.78;;;;;;;18.98;100.00;96623.47;5011397;28;20033;-75
2023/11/15 07:22:37;;;;;;;10.18;4.10;;;;;;;19.85;97.15;96624.34;5010302;28;20079;-75
2023/11/15 07:25:04;;;;;;;7.47;2.50;;;;;;;20.43;91.02;96613.06;5010252;28;20048;-75
2023/11/15 07:27:31;;;;;;;3.83;2.20;;;;;;;21.47;83.53;96607.84;5011504;28;20033;-74
2023/11/15 07:29:58;;;;;;;4.00;1.58;;;;;;;22.49;72.68;96592.50;4994125;28;20164;-75
2023/11/15 07:32:23;;;;;;;3.40;2.10;;;;;;;23.36;68.14;96593.16;4977620;28;20026;-75
2023/11/15 07:34:49;;;;;;;5.22;1.67;;;;;;;23.22;64.09;96584.84;4974421;28;20033;-75
2023/11/15 07:37:14;;;;;;;2.00;1.33;;;;;;;23.51;64.04;96596.69;4992744;28;20041;-75
2023/11/15 07:39:41;;;;;;;3.63;1.98;;;;;;;23.70;62.13;96598.72;4977551;28;20034;-75
2023/11/15 07:42:06;;;;;;;10.35;4.38;;;;;;;23.67;61.84;96599.97;4993861;28;20084;-75
2023/11/15 07:44:32;;;;;;;4.38;2.30;;;;;;;23.36;61.08;96598.63;4993662;28;20025;-75
2023/11/15 07:46:58;;;;;;;6.05;2.20;;;;;;;22.61;64.74;96610.06;4993392;28;20030;-74
2023/11/15 07:49:26;;;;;;;5.18;2.40;;;;;;;22.64;64.58;96615.13;5010996;28;20120;-76
2023/11/15 07:51:52;;;;;;;9.07;3.75;;;;;;;22.79;65.27;96618.69;4993849;28;20401;-74
2023/11/15 07:54:19;;;;;;;16.83;8.00;;;;;;;23.34;64.09;96625.28;4993297;28;20026;-75
2023/11/15 07:56:47;;;;;;;10.43;4.88;;;;;;;23.71;61.36;96630.44;5011102;28;20026;-74
2023/11/15 07:59:14;;;;;;;12.70;3.38;;;;;;;23.30;61.69;96635.75;4993530;28;20453;-75
2023/11/15 08:01:41;;;;;;;7.05;2.92;;;;;;;22.79;63.52;96640.50;5010751;28;20036;-76
2023/11/15 08:04:07;;;;;;;1.92;1.40;;;;;;;22.12;65.54;96624.31;4993293;28;20033;-74
2023/11/15 08:06:36;;;;;;;5.95;2.30;;;;;;;21.42;68.96;96631.19;4993240;28;20485;-74
2023/11/15 08:09:05;;;;;;;6.30;2.95;;;;;;;21.13;72.66;96647.44;4993196;28;20057;-75
2023/11/15 08:11:34;;;;;;;11.18;1.98;;;;;;;20.94;75.41;96675.94;4992865;28;20022;-75
2023/11/15 08:14:01;;;;;;;8.95;2.10;;;;;;;20.70;78.80;96684.25;4993544;28;20113;-75
2023/11/15 08:16:28;;;;;;;6.85;1.63;;;;;;;20.38;81.49;96702.41;4992946;28;20021;-75
2023/11/15 08:18:54;;;;;;;6.25;1.63;;;;;;;19.72;88.42;96724.44;4977254;28;20018;-77
2023/11/15 08:21:21;;;;;;;4.50;1.98;;;;;;;19.46;96.24;96737.38;5010563;28;20405;-75
2023/11/15 08:23:47;;;;;;;5.55;1.73;;;;;;;18.70;100.00;96747.56;4993052;28;20018;-75
2023/11/15 08:26:18;;;;;;;5.00;2.33;;;;;;;18.27;100.00;96771.03;4999163;28;20050;-75
2023/11/15 08:28:47;;;;;;;4.80;2.43;;;;;;;17.97;100.00;96790.47;5010700;28;20397;-76
2023/11/15 08:31:14;;;;;;;5.60;2.90;;;;;;;17.87;100.00;96796.00;5009180;28;20117;-74
2023/11/15 08:33:40;;;;;;;6.75;3.40;;;;;;;17.52;100.00;96812.25;5009567;28;20023;-74
2023/11/15 08:36:09;;;;;;;5.80;2.85;;;;;;;17.23;100.00;96825.16;4993216;28;20053;-74
2023/11/15 08:38:34;;;;;;;9.38;3.33;;;;;;;16.99;100.00;96846.53;4990786;28;20033;-74
2023/11/15 08:41:00;;;;;;;10.68;3.30;;;;;;;16.90;100.00;96863.63;5009439;28;20390;-75
2023/11/15 08:43:26;;;;;;;6.10;2.90;;;;;;;16.58;100.00;96883.81;5009346;28;20037;-74
2023/11/15 08:45:52;;;;;;;6.55;2.38;;;;;;;16.22;100.00;96917.88;5009341;28;20536;-75
2023/11/15 08:48:17;;;;;;;7.78;2.95;;;;;;;15.71;100.00;96937.09;5009293;28;20117;-75
2023/11/15 08:50:44;;;;;;;13.95;3.20;;;;;;;15.59;100.00;96956.25;5009200;28;20107;-75
2023/11/15 08:53:11;;;;;;;9.70;3.47;;;;;;;15.47;100.00;96954.63;5009409;28;20038;-75
2023/11/15 08:55:44;;;;;;;5.13;2.58;;;;;;;15.22;100.00;96968.63;5009306;28;20101;-75
2023/11/15 08:58:11;;;;;;;6.22;2.78;;;;;;;14.81;100.00;96985.75;4993723;28;20033;-75
2023/11/15 09:00:37;;;;;;;4.05;2.20;;;;;;;14.54;100.00;96984.50;5009027;28;20022;-75
2023/11/15 09:03:06;;;;;;;4.93;2.00;;;;;;;14.25;100.00;96980.72;5010486;28;20094;-75
2023/11/15 09:05:32;;;;;;;4.28;0.50;;;;;;;14.08;100.00;96997.47;5009042;28;20555;-76
2023/11/15 09:07:58;;;;;;;0.30;0.20;;;;;;;13.83;100.00;97014.81;4992438;28;20211;-75
2023/11/15 09:10:23;;;;;;;0.00;0.00;;;;;;;13.68;100.00;97028.66;5008923;28;20105;-76
2023/11/15 09:12:49;;;;;;;0.10;0.00;;;;;;;13.72;100.00;97028.25;5008906;28;20096;-74
2023/11/15 09:15:15;;;;;;;0.30;0.30;;;;;;;13.81;100.00;97042.78;5010253;28;20034;-74
2023/11/15 09:17:46;;;;;;;1.85;0.43;;;;;;;13.87;100.00;97053.88;5008842;28;20422;-73
2023/11/15 09:20:20;;;;;;;0.38;0.20;;;;;;;13.82;100.00;97052.56;4993296;28;20051;-73
2023/11/15 09:22:49;;;;;;;0.30;0.30;;;;;;;13.91;100.00;97066.09;5008916;28;20045;-74
2023/11/15 09:25:23;;;;;;;0.38;0.10;;;;;;;13.93;100.00;97076.72;5008995;28;20040;-73
2023/11/15 09:27:55;;;;;;;0.40;0.40;;;;;;;13.90;100.00;97074.28;4980066;28;20096;-73
2023/11/15 09:30:21;;;;;;;1.65;0.90;;;;;;;13.88;100.00;97077.09;4996130;28;20030;-73
2023/11/15 09:32:51;;;;;;;2.05;1.33;;;;;;;13.83;100.00;97073.09;4995791;28;20037;-73
2023/11/15 09:35:18;;;;;;;1.27;0.93;;;;;;;13.65;100.00;97074.59;4980069;28;20038;-72
2023/11/15 09:37:43;;;;;;;0.20;0.20;;;;;;;13.61;100.00;97075.81;4979474;28;20029;-74
2023/11/15 09:40:13;;;;;;;0.43;0.43;;;;;;;13.55;100.00;97077.19;4996116;28;20029;-72
2023/11/15 09:42:46;;;;;;;0.43;0.40;;;;;;;13.49;100.00;97083.06;4996188;28;20034;-72
2023/11/15 09:45:23;;;;;;;2.90;1.23;;;;;;;13.32;100.00;97073.66;4980406;28;20041;-74
2023/11/15 09:47:58;;;;;;;0.98;0.13;;;;;;;13.34;100.00;97079.78;4995859;28;20469;-74
2023/11/15 09:50:26;;;;;;;0.03;0.03;;;;;;;13.37;100.00;97081.34;4996326;28;20037;-73
2023/11/15 09:52:55;;;;;;;0.38;0.30;;;;;;;13.34;100.00;97087.84;4995593;28;20026;-73
2023/11/15 09:55:23;;;;;;;0.52;0.22;;;;;;;13.33;100.00;97091.50;4995961;28;20043;-72
2023/11/15 09:57:49;;;;;;;1.02;0.68;;;;;;;13.26;100.00;97084.06;4995632;28;20401;-73
2023/11/15 10:00:16;;;;;;;0.52;0.30;;;;;;;13.33;100.00;97091.50;4995548;28;20057;-73
2023/11/15 10:02:42;;;;;;;1.17;1.08;;;;;;;13.39;100.00;97087.44;4995481;28;20106;-74
2023/11/15 10:05:28;;;;;;;0.70;0.38;;;;;;;13.44;100.00;97078.03;5012984;28;20080;-72
2023/11/15 10:08:12;;;;;;;0.57;0.57;;;;;;;13.50;100.00;97074.84;5012907;28;20026;-74
2023/11/15 10:10:39;;;;;;;0.70;0.35;;;;;;;13.40;100.00;97065.84;5012660;28;20036;-72
2023/11/15 10:13:15;;;;;;;0.73;0.45;;;;;;;13.44;100.00;97069.97;5012853;28;20029;-72
2023/11/15 10:15:43;;;;;;;1.55;0.85;;;;;;;13.46;100.00;97073.41;4995363;28;20033;-72
2023/11/15 10:18:14;;;;;;;1.25;1.13;;;;;;;13.41;100.00;97072.91;4979175;28;20092;-73
2023/11/15 10:20:41;;;;;;;0.20;0.20;;;;;;;13.36;100.00;97072.44;4979422;28;20060;-74
2023/11/15 10:23:10;;;;;;;1.95;0.95;;;;;;;13.42;100.00;97081.84;4995255;28;20044;-72
2023/11/15 10:25:52;;;;;;;1.30;0.90;;;;;;;13.52;100.00;97090.88;4996429;28;20038;-73
2023/11/15 10:28:21;;;;;;;0.57;0.52;;;;;;;13.67;100.00;97088.75;4995304;28;20409;-72
2023/11/15 10:31:18;;;;;;;1.65;0.57;;;;;;;13.65;100.00;97080.84;4994955;28;20032;-72
2023/11/15 10:33:51;;;;;;;1.17;1.00;;;;;;;13.68;100.00;97079.72;5011756;28;20036;-74
2023/11/15 10:36:16;;;;;;;;;;;;;;;13.76;100.00;97082.63;5011793;28;20115;-73
2023/11/15 10:38:47;;;;;;;1.60;0.80;;;;;;;13.75;100.00;97086.31;5012010;28;19948;-74
2023/11/15 10:41:19;;;;;;;1.00;0.93;;;;;;;13.78;100.00;97100.34;5011126;28;20025;-73
2023/11/15 10:43:49;;;;;;;0.22;0.22;;;;;;;13.76;100.00;97104.13;5011008;28;20488;-72
2023/11/15 10:46:18;;;;;;;0.20;0.20;;;;;;;13.71;100.00;97106.34;5011268;28;20420;-73
2023/11/15 10:48:45;;;;;;;0.40;0.40;;;;;;;13.76;100.00;97117.56;5011096;28;20416;-73
2023/11/15 10:51:22;;;;;;;0.95;0.63;;;;;;;13.73;100.00;97115.13;5012136;28;20466;-73
2023/11/15 10:53:48;;;;;;;0.82;0.70;;;;;;;13.76;100.00;97110.38;5010808;28;20058;-71
2023/11/15 10:56:15;;;;;;;0.20;0.20;;;;;;;13.76;100.00;97107.69;5011986;28;20026;-74
2023/11/15 10:58:47;;;;;;;0.57;0.57;;;;;;;13.80;100.00;97117.22;4994426;28;20030;-74
2023/11/15 11:01:17;;;;;;;0.70;0.70;;;;;;;13.89;100.00;97129.03;5010830;28;20600;-72
2023/11/15 11:03:52;;;;;;;0.20;0.17;;;;;;;14.05;100.00;97132.19;4994262;28;20022;-71
2023/11/15 11:06:24;;;;;;;2.95;1.05;;;;;;;14.10;100.00;97130.81;5010744;28;20022;-71
2023/11/15 11:09:04;;;;;;;0.30;0.30;;;;;;;14.15;100.00;97126.91;5011516;28;20105;-73
2023/11/15 11:11:53;;;;;;;0.20;0.20;;;;;;;14.17;100.00;97122.25;5011862;28;20117;-72
2023/11/15 11:14:26;;;;;;;0.10;0.10;;;;;;;13.99;100.00;97122.78;5001716;28;20045;-73
2023/11/15 11:16:53;;;;;;;0.00;0.00;;;;;;;13.95;100.00;97120.47;4995309;28;20034;-72
2023/11/15 11:19:23;;;;;;;0.10;0.10;;;;;;;13.80;100.00;97105.59;5010404;28;20029;-73
2023/11/15 11:22:05;;;;;;;0.08;0.08;;;;;;;13.65;100.00;97126.53;5010574;28;20014;-74
2023/11/15 11:25:10;;;;;;;0.10;0.10;;;;;;;13.53;100.00;97122.97;5010382;28;20044;-73
2023/11/15 11:27:55;;;;;;;0.10;0.10;;;;;;;13.49;100.00;97116.16;5010125;28;20045;-74